sensor_id;sensor_type;location;lat;lon;timestamp;P1;durP1;ratioP1;P2;durP2;ratioP2
3771;SDS011;1901;48.172;12.824;2023-07-20T00:01:31;9.53;;;6.50;;
3771;SDS011;1901;48.172;12.824;2023-07-20T00:03:58;11.17;;;7.03;;
3771;SDS011;1901;48.172;12.824;2023-07-20T00:06:26;9.50;;;7.50;;
3771;SDS011;1901;48.172;12.824;2023-07-20T00:08:53;8.43;;;6.70;;
3771;SDS011;1901;48.172;12.824;2023-07-20T00:11:25;11.00;;;7.30;;
3771;SDS011;1901;48.172;12.824;2023-07-20T00:13:53;13.47;;;7.63;;
3771;SDS011;1901;48.172;12.824;2023-07-20T00:16:20;10.03;;;7.60;;
3771;SDS011;1901;48.172;12.824;2023-07-20T00:18:47;14.17;;;8.00;;
3771;SDS011;1901;48.172;12.824;2023-07-20T00:21:14;8.13;;;7.30;;
3771;SDS011;1901;48.172;12.824;2023-07-20T00:23:42;12.50;;;7.10;;
3771;SDS011;1901;48.172;12.824;2023-07-20T00:26:09;10.40;;;6.80;;
3771;SDS011;1901;48.172;12.824;2023-07-20T00:28:37;13.73;;;8.70;;
3771;SDS011;1901;48.172;12.824;2023-07-20T00:31:04;8.43;;;7.57;;
3771;SDS011;1901;48.172;12.824;2023-07-20T00:33:33;16.20;;;8.13;;
3771;SDS011;1901;48.172;12.824;2023-07-20T00:36:00;8.80;;;7.53;;
3771;SDS011;1901;48.172;12.824;2023-07-20T00:38:27;15.83;;;8.27;;
3771;SDS011;1901;48.172;12.824;2023-07-20T00:40:54;13.43;;;8.20;;
3771;SDS011;1901;48.172;12.824;2023-07-20T00:43:21;10.90;;;7.57;;
3771;SDS011;1901;48.172;12.824;2023-07-20T00:45:49;13.10;;;8.90;;
3771;SDS011;1901;48.172;12.824;2023-07-20T00:48:17;11.77;;;8.40;;
3771;SDS011;1901;48.172;12.824;2023-07-20T00:50:44;12.43;;;7.73;;
3771;SDS011;1901;48.172;12.824;2023-07-20T00:53:13;9.00;;;7.60;;
3771;SDS011;1901;48.172;12.824;2023-07-20T00:55:40;12.37;;;8.17;;
3771;SDS011;1901;48.172;12.824;2023-07-20T00:58:07;9.73;;;7.57;;
3771;SDS011;1901;48.172;12.824;2023-07-20T01:00:35;9.47;;;7.70;;
3771;SDS011;1901;48.172;12.824;2023-07-20T01:03:03;14.10;;;7.80;;
3771;SDS011;1901;48.172;12.824;2023-07-20T01:05:33;12.10;;;9.03;;
3771;SDS011;1901;48.172;12.824;2023-07-20T01:08:04;10.50;;;7.20;;
3771;SDS011;1901;48.172;12.824;2023-07-20T01:10:36;11.93;;;7.53;;
3771;SDS011;1901;48.172;12.824;2023-07-20T01:13:06;9.00;;;7.43;;
3771;SDS011;1901;48.172;12.824;2023-07-20T01:15:33;11.90;;;6.90;;
3771;SDS011;1901;48.172;12.824;2023-07-20T01:18:00;12.90;;;8.10;;
3771;SDS011;1901;48.172;12.824;2023-07-20T01:20:31;9.67;;;7.30;;
3771;SDS011;1901;48.172;12.824;2023-07-20T01:23:01;8.93;;;6.93;;
3771;SDS011;1901;48.172;12.824;2023-07-20T01:25:37;12.70;;;7.90;;
3771;SDS011;1901;48.172;12.824;2023-07-20T01:28:24;9.23;;;6.77;;
3771;SDS011;1901;48.172;12.824;2023-07-20T01:30:56;7.63;;;6.83;;
3771;SDS011;1901;48.172;12.824;2023-07-20T01:33:27;13.27;;;7.17;;
3771;SDS011;1901;48.172;12.824;2023-07-20T01:35:55;16.07;;;8.70;;
3771;SDS011;1901;48.172;12.824;2023-07-20T01:38:23;17.03;;;7.07;;
3771;SDS011;1901;48.172;12.824;2023-07-20T01:40:51;11.07;;;7.80;;
3771;SDS011;1901;48.172;12.824;2023-07-20T01:43:18;11.23;;;7.33;;
3771;SDS011;1901;48.172;12.824;2023-07-20T01:45:45;10.77;;;7.23;;
3771;SDS011;1901;48.172;12.824;2023-07-20T01:48:12;10.63;;;7.30;;
3771;SDS011;1901;48.172;12.824;2023-07-20T01:50:41;7.73;;;6.60;;
3771;SDS011;1901;48.172;12.824;2023-07-20T01:53:08;11.60;;;7.73;;
3771;SDS011;1901;48.172;12.824;2023-07-20T01:55:35;9.33;;;6.63;;
3771;SDS011;1901;48.172;12.824;2023-07-20T01:58:02;9.40;;;7.27;;
3771;SDS011;1901;48.172;12.824;2023-07-20T02:00:31;6.83;;;6.03;;
3771;SDS011;1901;48.172;12.824;2023-07-20T02:02:58;8.30;;;6.90;;
3771;SDS011;1901;48.172;12.824;2023-07-20T02:05:25;8.30;;;6.60;;
3771;SDS011;1901;48.172;12.824;2023-07-20T02:07:53;10.97;;;6.13;;
3771;SDS011;1901;48.172;12.824;2023-07-20T02:10:20;7.23;;;6.33;;
3771;SDS011;1901;48.172;12.824;2023-07-20T02:12:47;8.27;;;6.40;;
3771;SDS011;1901;48.172;12.824;2023-07-20T02:15:15;7.43;;;5.90;;
3771;SDS011;1901;48.172;12.824;2023-07-20T02:17:43;14.00;;;7.63;;
3771;SDS011;1901;48.172;12.824;2023-07-20T02:20:11;7.90;;;6.90;;
3771;SDS011;1901;48.172;12.824;2023-07-20T02:22:38;7.67;;;6.33;;
3771;SDS011;1901;48.172;12.824;2023-07-20T02:25:07;8.33;;;6.10;;
3771;SDS011;1901;48.172;12.824;2023-07-20T02:27:34;11.13;;;7.17;;
3771;SDS011;1901;48.172;12.824;2023-07-20T02:30:01;10.10;;;7.33;;
3771;SDS011;1901;48.172;12.824;2023-07-20T02:32:29;16.63;;;6.80;;
3771;SDS011;1901;48.172;12.824;2023-07-20T02:34:56;7.40;;;6.70;;
3771;SDS011;1901;48.172;12.824;2023-07-20T02:37:23;9.80;;;6.33;;
3771;SDS011;1901;48.172;12.824;2023-07-20T02:39:51;8.33;;;6.30;;
3771;SDS011;1901;48.172;12.824;2023-07-20T02:42:19;8.80;;;6.73;;
3771;SDS011;1901;48.172;12.824;2023-07-20T02:44:47;8.60;;;6.33;;
3771;SDS011;1901;48.172;12.824;2023-07-20T02:47:15;8.90;;;7.00;;
3771;SDS011;1901;48.172;12.824;2023-07-20T02:49:42;12.67;;;6.90;;
3771;SDS011;1901;48.172;12.824;2023-07-20T02:52:09;10.97;;;6.00;;
3771;SDS011;1901;48.172;12.824;2023-07-20T02:54:36;11.43;;;6.80;;
3771;SDS011;1901;48.172;12.824;2023-07-20T02:57:03;13.37;;;7.33;;
3771;SDS011;1901;48.172;12.824;2023-07-20T02:59:32;10.40;;;6.30;;
3771;SDS011;1901;48.172;12.824;2023-07-20T03:01:59;7.77;;;6.20;;
3771;SDS011;1901;48.172;12.824;2023-07-20T03:04:26;6.83;;;6.13;;
3771;SDS011;1901;48.172;12.824;2023-07-20T03:06:53;9.17;;;6.20;;
3771;SDS011;1901;48.172;12.824;2023-07-20T03:09:21;6.63;;;5.77;;
3771;SDS011;1901;48.172;12.824;2023-07-20T03:11:49;8.50;;;6.73;;
3771;SDS011;1901;48.172;12.824;2023-07-20T03:14:16;10.03;;;5.67;;
3771;SDS011;1901;48.172;12.824;2023-07-20T03:16:45;11.73;;;6.00;;
3771;SDS011;1901;48.172;12.824;2023-07-20T03:19:12;8.37;;;6.40;;
3771;SDS011;1901;48.172;12.824;2023-07-20T03:21:39;9.93;;;6.70;;
3771;SDS011;1901;48.172;12.824;2023-07-20T03:24:06;8.20;;;5.83;;
3771;SDS011;1901;48.172;12.824;2023-07-20T03:26:34;7.20;;;5.93;;
3771;SDS011;1901;48.172;12.824;2023-07-20T03:29:02;7.40;;;5.17;;
3771;SDS011;1901;48.172;12.824;2023-07-20T03:31:29;11.43;;;5.57;;
3771;SDS011;1901;48.172;12.824;2023-07-20T03:33:58;30.50;;;6.37;;
3771;SDS011;1901;48.172;12.824;2023-07-20T03:36:25;11.73;;;5.90;;
3771;SDS011;1901;48.172;12.824;2023-07-20T03:38:52;11.03;;;5.80;;
3771;SDS011;1901;48.172;12.824;2023-07-20T03:41:19;13.93;;;5.63;;
3771;SDS011;1901;48.172;12.824;2023-07-20T03:43:46;9.07;;;6.60;;
3771;SDS011;1901;48.172;12.824;2023-07-20T03:46:14;9.93;;;5.53;;
3771;SDS011;1901;48.172;12.824;2023-07-20T03:48:41;9.67;;;5.70;;
3771;SDS011;1901;48.172;12.824;2023-07-20T03:51:09;7.13;;;5.97;;
3771;SDS011;1901;48.172;12.824;2023-07-20T03:53:36;8.80;;;7.60;;
3771;SDS011;1901;48.172;12.824;2023-07-20T03:56:04;6.80;;;5.20;;
3771;SDS011;1901;48.172;12.824;2023-07-20T03:58:31;6.20;;;4.97;;
3771;SDS011;1901;48.172;12.824;2023-07-20T04:00:58;8.50;;;5.80;;
3771;SDS011;1901;48.172;12.824;2023-07-20T04:03:25;10.60;;;6.80;;
3771;SDS011;1901;48.172;12.824;2023-07-20T04:05:53;9.23;;;5.03;;
3771;SDS011;1901;48.172;12.824;2023-07-20T04:08:22;8.50;;;4.80;;
3771;SDS011;1901;48.172;12.824;2023-07-20T04:10:50;8.53;;;6.17;;
3771;SDS011;1901;48.172;12.824;2023-07-20T04:13:17;10.47;;;5.03;;
3771;SDS011;1901;48.172;12.824;2023-07-20T04:15:44;5.83;;;5.23;;
3771;SDS011;1901;48.172;12.824;2023-07-20T04:18:11;8.20;;;6.00;;
3771;SDS011;1901;48.172;12.824;2023-07-20T04:20:38;6.40;;;5.20;;
3771;SDS011;1901;48.172;12.824;2023-07-20T04:23:06;6.90;;;4.63;;
3771;SDS011;1901;48.172;12.824;2023-07-20T04:25:34;8.87;;;5.37;;
3771;SDS011;1901;48.172;12.824;2023-07-20T04:28:04;5.93;;;5.33;;
3771;SDS011;1901;48.172;12.824;2023-07-20T04:30:33;10.93;;;6.50;;
3771;SDS011;1901;48.172;12.824;2023-07-20T04:33:01;7.30;;;6.07;;
3771;SDS011;1901;48.172;12.824;2023-07-20T04:35:48;11.10;;;7.07;;
3771;SDS011;1901;48.172;12.824;2023-07-20T04:38:15;10.20;;;6.73;;
3771;SDS011;1901;48.172;12.824;2023-07-20T04:40:45;10.43;;;6.07;;
3771;SDS011;1901;48.172;12.824;2023-07-20T04:43:12;9.70;;;5.90;;
3771;SDS011;1901;48.172;12.824;2023-07-20T04:45:39;7.53;;;6.20;;
3771;SDS011;1901;48.172;12.824;2023-07-20T04:48:08;7.30;;;5.60;;
3771;SDS011;1901;48.172;12.824;2023-07-20T04:50:36;7.03;;;5.53;;
3771;SDS011;1901;48.172;12.824;2023-07-20T04:53:03;7.47;;;6.10;;
3771;SDS011;1901;48.172;12.824;2023-07-20T04:55:30;6.73;;;5.57;;
3771;SDS011;1901;48.172;12.824;2023-07-20T04:58:00;9.83;;;5.90;;
3771;SDS011;1901;48.172;12.824;2023-07-20T05:00:27;7.70;;;5.80;;
3771;SDS011;1901;48.172;12.824;2023-07-20T05:02:54;6.20;;;5.33;;
3771;SDS011;1901;48.172;12.824;2023-07-20T05:05:21;6.80;;;5.13;;
3771;SDS011;1901;48.172;12.824;2023-07-20T05:07:48;9.80;;;5.20;;
3771;SDS011;1901;48.172;12.824;2023-07-20T05:10:16;8.57;;;6.10;;
3771;SDS011;1901;48.172;12.824;2023-07-20T05:12:43;11.13;;;5.67;;
3771;SDS011;1901;48.172;12.824;2023-07-20T05:15:11;16.07;;;6.47;;
3771;SDS011;1901;48.172;12.824;2023-07-20T05:17:39;7.27;;;4.57;;
3771;SDS011;1901;48.172;12.824;2023-07-20T05:20:06;6.20;;;4.33;;
3771;SDS011;1901;48.172;12.824;2023-07-20T05:22:35;5.97;;;4.93;;
3771;SDS011;1901;48.172;12.824;2023-07-20T05:25:05;5.27;;;4.50;;
3771;SDS011;1901;48.172;12.824;2023-07-20T05:27:32;9.47;;;4.90;;
3771;SDS011;1901;48.172;12.824;2023-07-20T05:29:59;8.40;;;5.00;;
3771;SDS011;1901;48.172;12.824;2023-07-20T05:32:27;7.50;;;5.07;;
3771;SDS011;1901;48.172;12.824;2023-07-20T05:34:54;5.90;;;5.30;;
3771;SDS011;1901;48.172;12.824;2023-07-20T05:37:22;8.20;;;4.33;;
3771;SDS011;1901;48.172;12.824;2023-07-20T05:39:49;8.43;;;3.63;;
3771;SDS011;1901;48.172;12.824;2023-07-20T05:42:16;6.90;;;4.37;;
3771;SDS011;1901;48.172;12.824;2023-07-20T05:44:43;6.50;;;4.67;;
3771;SDS011;1901;48.172;12.824;2023-07-20T05:47:12;5.87;;;3.67;;
3771;SDS011;1901;48.172;12.824;2023-07-20T05:49:40;4.30;;;3.43;;
3771;SDS011;1901;48.172;12.824;2023-07-20T05:52:08;6.00;;;3.77;;
3771;SDS011;1901;48.172;12.824;2023-07-20T05:54:35;7.90;;;3.60;;
3771;SDS011;1901;48.172;12.824;2023-07-20T05:57:02;5.80;;;4.03;;
3771;SDS011;1901;48.172;12.824;2023-07-20T05:59:29;6.70;;;3.87;;
3771;SDS011;1901;48.172;12.824;2023-07-20T06:01:56;7.40;;;4.30;;
3771;SDS011;1901;48.172;12.824;2023-07-20T06:04:23;6.43;;;5.83;;
3771;SDS011;1901;48.172;12.824;2023-07-20T06:06:52;10.50;;;5.50;;
3771;SDS011;1901;48.172;12.824;2023-07-20T06:09:19;6.23;;;4.70;;
3771;SDS011;1901;48.172;12.824;2023-07-20T06:11:46;5.00;;;4.10;;
3771;SDS011;1901;48.172;12.824;2023-07-20T06:14:13;8.53;;;4.10;;
3771;SDS011;1901;48.172;12.824;2023-07-20T06:16:41;13.87;;;4.40;;
3771;SDS011;1901;48.172;12.824;2023-07-20T06:19:08;6.00;;;4.30;;
3771;SDS011;1901;48.172;12.824;2023-07-20T06:21:37;6.90;;;4.17;;
3771;SDS011;1901;48.172;12.824;2023-07-20T06:24:05;6.20;;;4.10;;
3771;SDS011;1901;48.172;12.824;2023-07-20T06:26:33;6.27;;;4.83;;
3771;SDS011;1901;48.172;12.824;2023-07-20T06:29:03;6.13;;;3.97;;
3771;SDS011;1901;48.172;12.824;2023-07-20T06:31:31;6.87;;;3.60;;
3771;SDS011;1901;48.172;12.824;2023-07-20T06:33:58;5.97;;;4.40;;
3771;SDS011;1901;48.172;12.824;2023-07-20T06:36:26;6.00;;;4.00;;
3771;SDS011;1901;48.172;12.824;2023-07-20T06:38:53;9.40;;;5.27;;
3771;SDS011;1901;48.172;12.824;2023-07-20T06:41:21;12.10;;;4.87;;
3771;SDS011;1901;48.172;12.824;2023-07-20T06:43:49;10.00;;;4.03;;
3771;SDS011;1901;48.172;12.824;2023-07-20T06:46:17;6.20;;;4.17;;
3771;SDS011;1901;48.172;12.824;2023-07-20T06:48:44;3.90;;;3.50;;
3771;SDS011;1901;48.172;12.824;2023-07-20T06:51:11;7.93;;;3.67;;
3771;SDS011;1901;48.172;12.824;2023-07-20T06:53:38;7.97;;;4.40;;
3771;SDS011;1901;48.172;12.824;2023-07-20T06:56:06;6.43;;;3.90;;
3771;SDS011;1901;48.172;12.824;2023-07-20T06:58:34;5.77;;;3.03;;
3771;SDS011;1901;48.172;12.824;2023-07-20T07:01:04;5.70;;;3.77;;
3771;SDS011;1901;48.172;12.824;2023-07-20T07:03:31;6.67;;;3.20;;
3771;SDS011;1901;48.172;12.824;2023-07-20T07:05:58;6.10;;;3.17;;
3771;SDS011;1901;48.172;12.824;2023-07-20T07:08:26;4.03;;;2.50;;
3771;SDS011;1901;48.172;12.824;2023-07-20T07:10:53;7.67;;;3.20;;
3771;SDS011;1901;48.172;12.824;2023-07-20T07:13:20;4.37;;;3.00;;
3771;SDS011;1901;48.172;12.824;2023-07-20T07:15:49;4.87;;;3.00;;
3771;SDS011;1901;48.172;12.824;2023-07-20T07:18:16;6.70;;;2.97;;
3771;SDS011;1901;48.172;12.824;2023-07-20T07:20:55;3.50;;;2.90;;
3771;SDS011;1901;48.172;12.824;2023-07-20T07:23:22;2.87;;;2.10;;
3771;SDS011;1901;48.172;12.824;2023-07-20T07:25:49;7.53;;;2.60;;
3771;SDS011;1901;48.172;12.824;2023-07-20T07:28:16;3.30;;;2.77;;
3771;SDS011;1901;48.172;12.824;2023-07-20T07:30:43;3.00;;;2.47;;
3771;SDS011;1901;48.172;12.824;2023-07-20T07:33:12;2.97;;;2.40;;
3771;SDS011;1901;48.172;12.824;2023-07-20T07:35:39;10.53;;;4.10;;
3771;SDS011;1901;48.172;12.824;2023-07-20T07:38:06;4.53;;;2.53;;
3771;SDS011;1901;48.172;12.824;2023-07-20T07:40:33;8.00;;;2.20;;
3771;SDS011;1901;48.172;12.824;2023-07-20T07:43:00;3.23;;;2.63;;
3771;SDS011;1901;48.172;12.824;2023-07-20T07:45:28;2.97;;;2.47;;
3771;SDS011;1901;48.172;12.824;2023-07-20T07:47:55;4.60;;;2.33;;
3771;SDS011;1901;48.172;12.824;2023-07-20T07:50:24;4.20;;;2.70;;
3771;SDS011;1901;48.172;12.824;2023-07-20T07:52:52;4.27;;;2.70;;
3771;SDS011;1901;48.172;12.824;2023-07-20T07:55:19;3.10;;;2.23;;
3771;SDS011;1901;48.172;12.824;2023-07-20T07:57:46;7.63;;;2.83;;
3771;SDS011;1901;48.172;12.824;2023-07-20T08:00:14;4.27;;;2.17;;
3771;SDS011;1901;48.172;12.824;2023-07-20T08:05:48;4.10;;;2.33;;
3771;SDS011;1901;48.172;12.824;2023-07-20T08:08:15;5.63;;;2.70;;
3771;SDS011;1901;48.172;12.824;2023-07-20T08:10:42;3.07;;;2.27;;
3771;SDS011;1901;48.172;12.824;2023-07-20T08:16:05;5.10;;;2.40;;
3771;SDS011;1901;48.172;12.824;2023-07-20T08:18:32;6.60;;;3.30;;
3771;SDS011;1901;48.172;12.824;2023-07-20T08:21:00;5.83;;;3.00;;
3771;SDS011;1901;48.172;12.824;2023-07-20T08:23:28;3.60;;;3.10;;
3771;SDS011;1901;48.172;12.824;2023-07-20T08:25:55;6.30;;;3.83;;
3771;SDS011;1901;48.172;12.824;2023-07-20T08:28:22;5.93;;;3.53;;
3771;SDS011;1901;48.172;12.824;2023-07-20T08:30:49;7.37;;;3.40;;
3771;SDS011;1901;48.172;12.824;2023-07-20T08:33:17;3.70;;;2.70;;
3771;SDS011;1901;48.172;12.824;2023-07-20T08:35:45;4.20;;;2.57;;
3771;SDS011;1901;48.172;12.824;2023-07-20T08:38:13;7.17;;;3.23;;
3771;SDS011;1901;48.172;12.824;2023-07-20T08:40:41;2.50;;;2.30;;
3771;SDS011;1901;48.172;12.824;2023-07-20T08:43:10;6.30;;;2.73;;
3771;SDS011;1901;48.172;12.824;2023-07-20T08:45:38;3.33;;;2.27;;
3771;SDS011;1901;48.172;12.824;2023-07-20T08:48:05;4.83;;;2.47;;
3771;SDS011;1901;48.172;12.824;2023-07-20T08:50:33;9.60;;;2.40;;
3771;SDS011;1901;48.172;12.824;2023-07-20T08:53:01;5.07;;;2.30;;
3771;SDS011;1901;48.172;12.824;2023-07-20T08:55:30;2.73;;;2.10;;
3771;SDS011;1901;48.172;12.824;2023-07-20T08:57:58;2.90;;;2.50;;
3771;SDS011;1901;48.172;12.824;2023-07-20T09:00:25;4.33;;;2.57;;
3771;SDS011;1901;48.172;12.824;2023-07-20T09:02:54;3.37;;;2.30;;
3771;SDS011;1901;48.172;12.824;2023-07-20T09:05:22;3.77;;;2.13;;
3771;SDS011;1901;48.172;12.824;2023-07-20T09:07:50;3.10;;;2.10;;
3771;SDS011;1901;48.172;12.824;2023-07-20T09:10:18;8.30;;;2.80;;
3771;SDS011;1901;48.172;12.824;2023-07-20T09:12:46;4.57;;;2.40;;
3771;SDS011;1901;48.172;12.824;2023-07-20T09:15:14;3.17;;;2.10;;
3771;SDS011;1901;48.172;12.824;2023-07-20T09:17:45;4.67;;;2.60;;
3771;SDS011;1901;48.172;12.824;2023-07-20T09:20:12;5.00;;;2.40;;
3771;SDS011;1901;48.172;12.824;2023-07-20T09:22:41;4.77;;;2.77;;
3771;SDS011;1901;48.172;12.824;2023-07-20T09:25:10;4.87;;;2.80;;
3771;SDS011;1901;48.172;12.824;2023-07-20T09:27:38;3.40;;;2.40;;
3771;SDS011;1901;48.172;12.824;2023-07-20T09:30:07;3.20;;;2.00;;
3771;SDS011;1901;48.172;12.824;2023-07-20T09:32:39;5.40;;;2.63;;
3771;SDS011;1901;48.172;12.824;2023-07-20T09:35:12;3.33;;;2.07;;
3771;SDS011;1901;48.172;12.824;2023-07-20T09:37:39;4.13;;;2.20;;
3771;SDS011;1901;48.172;12.824;2023-07-20T09:40:06;3.00;;;2.60;;
3771;SDS011;1901;48.172;12.824;2023-07-20T09:42:35;3.23;;;2.23;;
3771;SDS011;1901;48.172;12.824;2023-07-20T09:45:07;2.90;;;2.20;;
3771;SDS011;1901;48.172;12.824;2023-07-20T09:47:35;5.20;;;2.80;;
3771;SDS011;1901;48.172;12.824;2023-07-20T09:50:03;4.43;;;2.60;;
3771;SDS011;1901;48.172;12.824;2023-07-20T09:52:35;2.43;;;2.10;;
3771;SDS011;1901;48.172;12.824;2023-07-20T09:55:03;4.10;;;2.40;;
3771;SDS011;1901;48.172;12.824;2023-07-20T09:57:30;2.93;;;2.10;;
3771;SDS011;1901;48.172;12.824;2023-07-20T09:59:58;2.90;;;2.23;;
3771;SDS011;1901;48.172;12.824;2023-07-20T10:02:30;4.60;;;2.20;;
3771;SDS011;1901;48.172;12.824;2023-07-20T10:05:00;4.20;;;2.57;;
3771;SDS011;1901;48.172;12.824;2023-07-20T10:07:29;4.50;;;2.90;;
3771;SDS011;1901;48.172;12.824;2023-07-20T10:09:57;4.47;;;2.70;;
3771;SDS011;1901;48.172;12.824;2023-07-20T10:12:26;3.33;;;2.80;;
3771;SDS011;1901;48.172;12.824;2023-07-20T10:14:57;5.77;;;2.73;;
3771;SDS011;1901;48.172;12.824;2023-07-20T10:17:28;2.87;;;2.40;;
3771;SDS011;1901;48.172;12.824;2023-07-20T10:19:55;5.50;;;3.27;;
3771;SDS011;1901;48.172;12.824;2023-07-20T10:22:25;7.93;;;2.63;;
3771;SDS011;1901;48.172;12.824;2023-07-20T10:24:52;2.70;;;2.40;;
3771;SDS011;1901;48.172;12.824;2023-07-20T10:27:23;3.03;;;2.30;;
3771;SDS011;1901;48.172;12.824;2023-07-20T10:29:50;4.93;;;2.50;;
3771;SDS011;1901;48.172;12.824;2023-07-20T10:32:18;2.90;;;2.47;;
3771;SDS011;1901;48.172;12.824;2023-07-20T10:34:51;3.63;;;2.27;;
3771;SDS011;1901;48.172;12.824;2023-07-20T10:37:45;3.70;;;2.60;;
3771;SDS011;1901;48.172;12.824;2023-07-20T10:40:26;4.37;;;2.00;;
3771;SDS011;1901;48.172;12.824;2023-07-20T10:42:56;4.20;;;2.97;;
3771;SDS011;1901;48.172;12.824;2023-07-20T10:45:32;2.83;;;2.20;;
3771;SDS011;1901;48.172;12.824;2023-07-20T10:48:02;4.40;;;2.23;;
3771;SDS011;1901;48.172;12.824;2023-07-20T10:50:31;2.47;;;2.27;;
3771;SDS011;1901;48.172;12.824;2023-07-20T10:53:05;3.20;;;2.37;;
3771;SDS011;1901;48.172;12.824;2023-07-20T10:55:36;4.00;;;2.80;;
3771;SDS011;1901;48.172;12.824;2023-07-20T10:58:07;3.93;;;2.63;;
3771;SDS011;1901;48.172;12.824;2023-07-20T11:00:34;2.33;;;1.97;;
3771;SDS011;1901;48.172;12.824;2023-07-20T11:03:02;3.97;;;2.03;;
3771;SDS011;1901;48.172;12.824;2023-07-20T11:05:37;7.47;;;2.10;;
3771;SDS011;1901;48.172;12.824;2023-07-20T11:08:06;6.03;;;2.00;;
3771;SDS011;1901;48.172;12.824;2023-07-20T11:10:36;6.70;;;2.10;;
3771;SDS011;1901;48.172;12.824;2023-07-20T11:13:16;2.70;;;2.13;;
3771;SDS011;1901;48.172;12.824;2023-07-20T11:15:46;3.67;;;2.00;;
3771;SDS011;1901;48.172;12.824;2023-07-20T11:18:13;4.20;;;1.97;;
3771;SDS011;1901;48.172;12.824;2023-07-20T11:20:42;3.30;;;2.37;;
3771;SDS011;1901;48.172;12.824;2023-07-20T11:23:09;5.10;;;2.50;;
3771;SDS011;1901;48.172;12.824;2023-07-20T11:25:37;3.83;;;2.50;;
3771;SDS011;1901;48.172;12.824;2023-07-20T11:28:06;3.17;;;2.00;;
3771;SDS011;1901;48.172;12.824;2023-07-20T11:30:34;2.43;;;1.93;;
3771;SDS011;1901;48.172;12.824;2023-07-20T11:33:01;2.50;;;2.30;;
3771;SDS011;1901;48.172;12.824;2023-07-20T11:35:28;3.27;;;2.57;;
3771;SDS011;1901;48.172;12.824;2023-07-20T11:37:57;2.90;;;1.80;;
3771;SDS011;1901;48.172;12.824;2023-07-20T11:40:24;3.40;;;2.10;;
3771;SDS011;1901;48.172;12.824;2023-07-20T11:42:51;2.80;;;2.13;;
3771;SDS011;1901;48.172;12.824;2023-07-20T11:45:20;3.83;;;1.90;;
3771;SDS011;1901;48.172;12.824;2023-07-20T11:47:47;3.07;;;2.10;;
3771;SDS011;1901;48.172;12.824;2023-07-20T11:50:14;3.63;;;2.30;;
3771;SDS011;1901;48.172;12.824;2023-07-20T11:52:42;4.90;;;2.40;;
3771;SDS011;1901;48.172;12.824;2023-07-20T11:55:11;3.20;;;2.90;;
3771;SDS011;1901;48.172;12.824;2023-07-20T11:57:38;4.67;;;2.00;;
3771;SDS011;1901;48.172;12.824;2023-07-20T12:00:06;2.40;;;2.10;;
3771;SDS011;1901;48.172;12.824;2023-07-20T12:02:37;2.30;;;1.80;;
3771;SDS011;1901;48.172;12.824;2023-07-20T12:05:05;5.03;;;2.27;;
3771;SDS011;1901;48.172;12.824;2023-07-20T12:07:34;2.20;;;1.80;;
3771;SDS011;1901;48.172;12.824;2023-07-20T12:10:04;2.20;;;2.00;;
3771;SDS011;1901;48.172;12.824;2023-07-20T12:12:32;1.87;;;1.67;;
3771;SDS011;1901;48.172;12.824;2023-07-20T12:15:15;6.10;;;2.03;;
3771;SDS011;1901;48.172;12.824;2023-07-20T12:17:43;3.50;;;2.10;;
3771;SDS011;1901;48.172;12.824;2023-07-20T12:20:11;3.60;;;2.17;;
3771;SDS011;1901;48.172;12.824;2023-07-20T12:22:39;2.47;;;1.90;;
3771;SDS011;1901;48.172;12.824;2023-07-20T12:25:07;2.80;;;2.13;;
3771;SDS011;1901;48.172;12.824;2023-07-20T12:27:36;6.10;;;2.40;;
3771;SDS011;1901;48.172;12.824;2023-07-20T12:30:04;6.67;;;2.23;;
3771;SDS011;1901;48.172;12.824;2023-07-20T12:32:32;3.20;;;2.33;;
3771;SDS011;1901;48.172;12.824;2023-07-20T12:35:00;5.17;;;3.20;;
3771;SDS011;1901;48.172;12.824;2023-07-20T12:37:27;5.93;;;2.07;;
3771;SDS011;1901;48.172;12.824;2023-07-20T12:39:54;3.10;;;2.70;;
3771;SDS011;1901;48.172;12.824;2023-07-20T12:42:21;2.87;;;2.17;;
3771;SDS011;1901;48.172;12.824;2023-07-20T12:44:50;3.13;;;2.37;;
3771;SDS011;1901;48.172;12.824;2023-07-20T12:47:17;3.93;;;2.20;;
3771;SDS011;1901;48.172;12.824;2023-07-20T12:49:44;5.50;;;2.70;;
3771;SDS011;1901;48.172;12.824;2023-07-20T12:52:11;3.33;;;2.20;;
3771;SDS011;1901;48.172;12.824;2023-07-20T12:54:39;2.60;;;2.33;;
3771;SDS011;1901;48.172;12.824;2023-07-20T12:57:06;8.33;;;2.47;;
3771;SDS011;1901;48.172;12.824;2023-07-20T12:59:33;3.43;;;1.97;;
3771;SDS011;1901;48.172;12.824;2023-07-20T13:02:02;2.70;;;2.30;;
3771;SDS011;1901;48.172;12.824;2023-07-20T13:04:30;3.90;;;3.00;;
3771;SDS011;1901;48.172;12.824;2023-07-20T13:06:57;4.17;;;2.10;;
3771;SDS011;1901;48.172;12.824;2023-07-20T13:09:24;3.60;;;2.30;;
3771;SDS011;1901;48.172;12.824;2023-07-20T13:11:51;2.77;;;2.57;;
3771;SDS011;1901;48.172;12.824;2023-07-20T13:14:19;2.83;;;2.30;;
3771;SDS011;1901;48.172;12.824;2023-07-20T13:16:46;3.43;;;2.10;;
3771;SDS011;1901;48.172;12.824;2023-07-20T13:19:14;4.43;;;2.63;;
3771;SDS011;1901;48.172;12.824;2023-07-20T13:21:42;7.57;;;2.67;;
3771;SDS011;1901;48.172;12.824;2023-07-20T13:24:09;2.43;;;2.17;;
3771;SDS011;1901;48.172;12.824;2023-07-20T13:26:36;2.60;;;2.17;;
3771;SDS011;1901;48.172;12.824;2023-07-20T13:29:03;6.70;;;2.53;;
3771;SDS011;1901;48.172;12.824;2023-07-20T13:31:30;17.10;;;2.70;;
3771;SDS011;1901;48.172;12.824;2023-07-20T13:33:58;3.10;;;2.40;;
3771;SDS011;1901;48.172;12.824;2023-07-20T13:36:26;4.50;;;2.27;;
3771;SDS011;1901;48.172;12.824;2023-07-20T13:38:53;3.50;;;2.00;;
3771;SDS011;1901;48.172;12.824;2023-07-20T13:41:20;3.73;;;2.50;;
3771;SDS011;1901;48.172;12.824;2023-07-20T13:43:48;3.17;;;1.93;;
3771;SDS011;1901;48.172;12.824;2023-07-20T13:46:15;8.03;;;2.30;;
3771;SDS011;1901;48.172;12.824;2023-07-20T13:48:42;2.90;;;2.17;;
3771;SDS011;1901;48.172;12.824;2023-07-20T13:51:09;3.23;;;2.87;;
3771;SDS011;1901;48.172;12.824;2023-07-20T13:53:38;3.33;;;2.20;;
3771;SDS011;1901;48.172;12.824;2023-07-20T13:56:05;3.77;;;2.87;;
3771;SDS011;1901;48.172;12.824;2023-07-20T13:58:32;6.70;;;3.03;;
3771;SDS011;1901;48.172;12.824;2023-07-20T14:01:00;2.93;;;1.90;;
3771;SDS011;1901;48.172;12.824;2023-07-20T14:03:27;3.60;;;2.57;;
3771;SDS011;1901;48.172;12.824;2023-07-20T14:05:54;4.30;;;2.63;;
3771;SDS011;1901;48.172;12.824;2023-07-20T14:08:21;3.73;;;2.60;;
3771;SDS011;1901;48.172;12.824;2023-07-20T14:10:50;9.83;;;2.80;;
3771;SDS011;1901;48.172;12.824;2023-07-20T14:13:18;3.50;;;2.53;;
3771;SDS011;1901;48.172;12.824;2023-07-20T14:15:45;3.33;;;2.30;;
3771;SDS011;1901;48.172;12.824;2023-07-20T14:18:12;2.50;;;2.30;;
3771;SDS011;1901;48.172;12.824;2023-07-20T14:20:39;4.30;;;2.17;;
3771;SDS011;1901;48.172;12.824;2023-07-20T14:23:07;2.47;;;2.17;;
3771;SDS011;1901;48.172;12.824;2023-07-20T14:25:34;8.70;;;4.27;;
3771;SDS011;1901;48.172;12.824;2023-07-20T14:28:03;5.77;;;2.70;;
3771;SDS011;1901;48.172;12.824;2023-07-20T14:30:30;2.87;;;2.17;;
3771;SDS011;1901;48.172;12.824;2023-07-20T14:32:57;2.90;;;2.67;;
3771;SDS011;1901;48.172;12.824;2023-07-20T14:35:24;9.40;;;1.90;;
3771;SDS011;1901;48.172;12.824;2023-07-20T14:37:51;2.83;;;2.53;;
3771;SDS011;1901;48.172;12.824;2023-07-20T14:40:18;7.13;;;2.87;;
3771;SDS011;1901;48.172;12.824;2023-07-20T14:42:46;3.53;;;2.07;;
3771;SDS011;1901;48.172;12.824;2023-07-20T14:45:14;6.90;;;3.70;;
3771;SDS011;1901;48.172;12.824;2023-07-20T14:47:41;4.87;;;3.67;;
3771;SDS011;1901;48.172;12.824;2023-07-20T14:50:09;5.03;;;2.30;;
3771;SDS011;1901;48.172;12.824;2023-07-20T14:52:36;4.87;;;2.50;;
3771;SDS011;1901;48.172;12.824;2023-07-20T14:55:03;7.20;;;2.83;;
3771;SDS011;1901;48.172;12.824;2023-07-20T14:57:31;3.47;;;2.60;;
3771;SDS011;1901;48.172;12.824;2023-07-20T14:59:58;2.70;;;2.23;;
3771;SDS011;1901;48.172;12.824;2023-07-20T15:02:26;5.60;;;2.83;;
3771;SDS011;1901;48.172;12.824;2023-07-20T15:04:53;3.33;;;2.63;;
3771;SDS011;1901;48.172;12.824;2023-07-20T15:07:21;2.50;;;2.27;;
3771;SDS011;1901;48.172;12.824;2023-07-20T15:09:49;3.60;;;2.63;;
3771;SDS011;1901;48.172;12.824;2023-07-20T15:12:16;2.70;;;2.30;;